Impacts TAF Board INFO
FOR SITUATIONAL AWARENESS. NOT TO BE USED FOR FLIGHT PLANNING PURPOSES.
IDs:

KSLC - Salt Lake City Intl, UT, US

Issued at 1502 UTC 18 Jan 2018
Updated at 1549 UTC 18 Jan 2018
Potential Impact None Slight Moderate High
Time1454Z 18/16Z 18/17Z 18/18Z 18/19Z 18/20Z 18/21Z 18/22Z 18/23Z 19/00Z 19/01Z 19/02Z 19/03Z 19/04Z>>
Type OBS PRVL PRVL PRVL PRVL PRVL PRVL PRVL PRVL PRVL PRVL PRVL PRVL PRVL
VIS 10 >6 >6 >6 >6 >6 >6 >6 >6 >6 >6 >6 >6 >6
CIG 250 200 200 200 150 150 150 150 150 150 150 150 150 150
Cover BKN OVC OVC OVC OVC OVC OVC OVC OVC OVC OVC OVC OVC BKN
FltCat VFR VFR VFR VFR VFR VFR VFR VFR VFR VFR VFR VFR VFR VFR
WX -- -- -- -- -- -- -- -- -- -- -- -- -- --
WDir 120 130 130 130 180 180 180 180 180 180 180 180 180 170
WSpd 8 10 10 10 11 11 11 11 11 11 11 11 11 16
WGst -- -- -- -- -- -- -- -- -- -- -- -- -- 23

Raw TAF
KSLC 181502Z 1815/1918 13010KT P6SM OVC200
  FM181900 18011KT P6SM BKN150 OVC200
  FM190400 17016G23KT P6SM SCT100 BKN150
  FM191000 18018G28KT P6SM SCT090 BKN130


Raw METAR
KSLC 181454Z 12008KT 10SM FEW140 SCT200 BKN250 02/M03 A3022 RMK AO2 SLP237 ACSL DSNT NW T00221028 58009
KSLC 181354Z 16006KT 10SM SCT200 02/M02 A3024 RMK AO2 SLP241 T00221017
KSLC 181254Z 17003KT 10SM SCT200 01/M02 A3025 RMK AO2 SLP245 T00061017

METAR Board
Radar Display
Forecast Discussion

FOR SITUATIONAL AWARENESS. NOT TO BE USED FOR FLIGHT PLANNING PURPOSES.